Portada
METAR-TAF:

METAR-TAF

Aeroports :

Sherbrooke, Quebec, Canadà

latitud: 45-24N, longitud: 071-53W, altitud: 170 m

Observació

L'informe es va fer fa 35 minuts, a les 02:00 UTC
Vent 9 kt del Oest amb ràfegues de 16 kt
Temperatura -12°C
Humitat 51%
Pressió 1013 hPa
Visibilitat: 14.5 km
Cel clar

METAR: CYSC 030200Z AUTO 26009G16KT 9SM CLR M12/M20 A2992 RMK SLP154

Hora: 21:35 (02:35 UTC)

Pronòstic

L'informe es va fer fa 2 hores i 57 minuts, a les 23:38 UTC
Pronòstic vàlid del 03 a les 00 UTC al 03 a les 03 UTC
Vent 10 kt del Oest/Sud-Oest amb ràfegues de 22 kt
Visibilitat: 10 km
Escasses núvols a una alçada de 24000 ft
Evolucionant progressivament
l' 03 a les 01 UTC al 03 a les 03 UTC
Vent 10 kt del Oest

TAF: CYSC 022338Z 0300/0303 25010G22KT P6SM FEW240 BECMG 0301/0303 26010KT RMK FCST BASED ON AUTO OBS. NXT FCST WILL BE ISSUED AT 031045Z

Observacions i pronòstics meteorològics de més de 4000 aeroports (METAR i TAF).

Les estacions disponibles són els punts grocs i vermells al mapa.

Posi el ratolí al punt desitjat per veure el nom de l'estació.

Feu clic per veure les observacions i els pronòstics meteorològics.

Per canviar el mapa: feu clic els botons verds amb una creu de color negre per apropar; al botó verd amb un guió per allunyar la imatge; o en les fletxes verdes per a mapes adjacents.


METAR-TAF: